sensor_id;sensor_type;location;lat;lon;timestamp;P1;durP1;ratioP1;P2;durP2;ratioP2
38785;SDS011;24535;45.508;12.252;2023-03-31T00:02:03;34.90;;;28.15;;
38785;SDS011;24535;45.508;12.252;2023-03-31T00:04:38;32.83;;;25.00;;
38785;SDS011;24535;45.508;12.252;2023-03-31T00:07:09;31.63;;;27.65;;
38785;SDS011;24535;45.508;12.252;2023-03-31T00:09:35;34.75;;;27.75;;
38785;SDS011;24535;45.508;12.252;2023-03-31T00:12:01;33.80;;;27.02;;
38785;SDS011;24535;45.508;12.252;2023-03-31T00:14:26;28.77;;;22.20;;
38785;SDS011;24535;45.508;12.252;2023-03-31T00:16:55;32.97;;;26.63;;
38785;SDS011;24535;45.508;12.252;2023-03-31T00:19:22;33.80;;;26.10;;
38785;SDS011;24535;45.508;12.252;2023-03-31T00:21:48;32.10;;;26.73;;
38785;SDS011;24535;45.508;12.252;2023-03-31T00:24:16;38.40;;;27.85;;
38785;SDS011;24535;45.508;12.252;2023-03-31T00:26:42;33.30;;;27.50;;
38785;SDS011;24535;45.508;12.252;2023-03-31T00:29:08;33.28;;;25.83;;
38785;SDS011;24535;45.508;12.252;2023-03-31T00:31:36;35.17;;;27.50;;
38785;SDS011;24535;45.508;12.252;2023-03-31T00:34:03;34.60;;;27.83;;
38785;SDS011;24535;45.508;12.252;2023-03-31T00:36:29;27.48;;;20.40;;
38785;SDS011;24535;45.508;12.252;2023-03-31T00:38:59;20.15;;;16.73;;
38785;SDS011;24535;45.508;12.252;2023-03-31T00:41:27;19.60;;;16.85;;
38785;SDS011;24535;45.508;12.252;2023-03-31T00:49:22;37.15;;;27.08;;
38785;SDS011;24535;45.508;12.252;2023-03-31T00:52:02;34.53;;;26.33;;
38785;SDS011;24535;45.508;12.252;2023-03-31T00:54:31;35.15;;;27.48;;
38785;SDS011;24535;45.508;12.252;2023-03-31T00:56:58;28.92;;;24.00;;
38785;SDS011;24535;45.508;12.252;2023-03-31T00:59:27;34.35;;;25.17;;
38785;SDS011;24535;45.508;12.252;2023-03-31T01:01:56;25.63;;;21.33;;
38785;SDS011;24535;45.508;12.252;2023-03-31T01:04:26;31.58;;;24.13;;
38785;SDS011;24535;45.508;12.252;2023-03-31T01:07:41;37.88;;;27.95;;
38785;SDS011;24535;45.508;12.252;2023-03-31T01:09:50;32.95;;;26.60;;
38785;SDS011;24535;45.508;12.252;2023-03-31T01:12:19;35.43;;;28.10;;
38785;SDS011;24535;45.508;12.252;2023-03-31T01:14:47;49.30;;;33.20;;
38785;SDS011;24535;45.508;12.252;2023-03-31T01:17:15;50.47;;;34.75;;
38785;SDS011;24535;45.508;12.252;2023-03-31T01:28:02;46.28;;;30.50;;
38785;SDS011;24535;45.508;12.252;2023-03-31T01:35:57;30.00;;;23.85;;
38785;SDS011;24535;45.508;12.252;2023-03-31T01:49:16;31.40;;;24.88;;
38785;SDS011;24535;45.508;12.252;2023-03-31T01:56:54;31.50;;;26.48;;
38785;SDS011;24535;45.508;12.252;2023-03-31T01:59:27;31.20;;;26.55;;
38785;SDS011;24535;45.508;12.252;2023-03-31T02:02:00;37.28;;;27.02;;
38785;SDS011;24535;45.508;12.252;2023-03-31T02:04:36;32.42;;;28.20;;
38785;SDS011;24535;45.508;12.252;2023-03-31T02:07:13;33.28;;;24.35;;
38785;SDS011;24535;45.508;12.252;2023-03-31T02:09:44;32.38;;;25.73;;
38785;SDS011;24535;45.508;12.252;2023-03-31T02:12:14;34.75;;;27.63;;
38785;SDS011;24535;45.508;12.252;2023-03-31T02:14:43;33.45;;;27.10;;
38785;SDS011;24535;45.508;12.252;2023-03-31T02:17:14;39.65;;;26.88;;
38785;SDS011;24535;45.508;12.252;2023-03-31T02:19:43;38.35;;;27.20;;
38785;SDS011;24535;45.508;12.252;2023-03-31T02:22:12;31.67;;;25.67;;
38785;SDS011;24535;45.508;12.252;2023-03-31T02:24:40;29.95;;;24.25;;
38785;SDS011;24535;45.508;12.252;2023-03-31T02:27:27;32.72;;;27.83;;
38785;SDS011;24535;45.508;12.252;2023-03-31T02:29:59;40.60;;;27.58;;
38785;SDS011;24535;45.508;12.252;2023-03-31T02:32:34;29.30;;;23.38;;
38785;SDS011;24535;45.508;12.252;2023-03-31T02:35:05;40.03;;;26.38;;
38785;SDS011;24535;45.508;12.252;2023-03-31T02:37:34;31.73;;;23.83;;
38785;SDS011;24535;45.508;12.252;2023-03-31T02:40:03;32.25;;;26.80;;
38785;SDS011;24535;45.508;12.252;2023-03-31T02:42:35;37.65;;;28.52;;
38785;SDS011;24535;45.508;12.252;2023-03-31T02:45:05;32.25;;;25.55;;
38785;SDS011;24535;45.508;12.252;2023-03-31T02:47:51;29.25;;;21.73;;
38785;SDS011;24535;45.508;12.252;2023-03-31T02:50:18;33.55;;;25.92;;
38785;SDS011;24535;45.508;12.252;2023-03-31T02:53:02;28.20;;;24.00;;
38785;SDS011;24535;45.508;12.252;2023-03-31T02:55:51;37.58;;;26.20;;
38785;SDS011;24535;45.508;12.252;2023-03-31T02:58:34;39.05;;;27.63;;
38785;SDS011;24535;45.508;12.252;2023-03-31T03:13:16;38.80;;;28.48;;
38785;SDS011;24535;45.508;12.252;2023-03-31T03:15:17;25.45;;;20.95;;
38785;SDS011;24535;45.508;12.252;2023-03-31T03:17:49;29.25;;;21.27;;
38785;SDS011;24535;45.508;12.252;2023-03-31T03:20:17;27.30;;;19.92;;
38785;SDS011;24535;45.508;12.252;2023-03-31T03:22:43;32.88;;;23.60;;
38785;SDS011;24535;45.508;12.252;2023-03-31T03:25:11;25.42;;;18.08;;
38785;SDS011;24535;45.508;12.252;2023-03-31T03:27:38;25.83;;;19.58;;
38785;SDS011;24535;45.508;12.252;2023-03-31T03:30:05;23.83;;;19.23;;
38785;SDS011;24535;45.508;12.252;2023-03-31T03:32:32;26.90;;;20.38;;
38785;SDS011;24535;45.508;12.252;2023-03-31T03:34:58;32.75;;;24.05;;
38785;SDS011;24535;45.508;12.252;2023-03-31T03:37:24;35.65;;;26.05;;
38785;SDS011;24535;45.508;12.252;2023-03-31T03:39:50;26.05;;;20.30;;
38785;SDS011;24535;45.508;12.252;2023-03-31T03:42:15;32.80;;;25.25;;
38785;SDS011;24535;45.508;12.252;2023-03-31T03:44:41;31.75;;;24.60;;
38785;SDS011;24535;45.508;12.252;2023-03-31T03:47:06;33.03;;;25.25;;
38785;SDS011;24535;45.508;12.252;2023-03-31T03:49:32;28.63;;;22.20;;
38785;SDS011;24535;45.508;12.252;2023-03-31T03:51:57;30.83;;;24.85;;
38785;SDS011;24535;45.508;12.252;2023-03-31T03:54:22;30.65;;;24.77;;
38785;SDS011;24535;45.508;12.252;2023-03-31T03:56:48;28.25;;;21.25;;
38785;SDS011;24535;45.508;12.252;2023-03-31T03:59:13;29.70;;;23.23;;
38785;SDS011;24535;45.508;12.252;2023-03-31T04:01:39;27.25;;;20.23;;
38785;SDS011;24535;45.508;12.252;2023-03-31T04:04:05;34.70;;;24.23;;
38785;SDS011;24535;45.508;12.252;2023-03-31T04:06:30;24.80;;;18.17;;
38785;SDS011;24535;45.508;12.252;2023-03-31T04:08:55;34.03;;;24.88;;
38785;SDS011;24535;45.508;12.252;2023-03-31T04:11:21;31.35;;;24.20;;
38785;SDS011;24535;45.508;12.252;2023-03-31T04:13:47;35.00;;;25.65;;
38785;SDS011;24535;45.508;12.252;2023-03-31T04:16:12;25.98;;;21.48;;
38785;SDS011;24535;45.508;12.252;2023-03-31T04:18:38;39.50;;;26.80;;
38785;SDS011;24535;45.508;12.252;2023-03-31T04:21:13;32.55;;;25.05;;
38785;SDS011;24535;45.508;12.252;2023-03-31T04:23:47;35.95;;;26.52;;
38785;SDS011;24535;45.508;12.252;2023-03-31T04:26:22;35.92;;;25.70;;
38785;SDS011;24535;45.508;12.252;2023-03-31T04:28:58;36.92;;;27.00;;
38785;SDS011;24535;45.508;12.252;2023-03-31T04:31:26;40.28;;;25.02;;
38785;SDS011;24535;45.508;12.252;2023-03-31T04:33:54;42.67;;;27.48;;
38785;SDS011;24535;45.508;12.252;2023-03-31T04:36:25;40.53;;;25.77;;
38785;SDS011;24535;45.508;12.252;2023-03-31T04:38:50;34.95;;;27.27;;
38785;SDS011;24535;45.508;12.252;2023-03-31T04:41:18;37.20;;;27.45;;
38785;SDS011;24535;45.508;12.252;2023-03-31T04:43:45;39.55;;;28.38;;
38785;SDS011;24535;45.508;12.252;2023-03-31T04:46:10;44.35;;;27.83;;
38785;SDS011;24535;45.508;12.252;2023-03-31T04:48:36;28.23;;;19.75;;
38785;SDS011;24535;45.508;12.252;2023-03-31T04:51:01;36.47;;;27.00;;
38785;SDS011;24535;45.508;12.252;2023-03-31T04:53:27;38.00;;;24.92;;
38785;SDS011;24535;45.508;12.252;2023-03-31T04:55:53;28.10;;;21.20;;
38785;SDS011;24535;45.508;12.252;2023-03-31T04:58:21;36.17;;;25.58;;
38785;SDS011;24535;45.508;12.252;2023-03-31T05:00:47;44.50;;;26.60;;
38785;SDS011;24535;45.508;12.252;2023-03-31T05:03:12;34.25;;;26.50;;
38785;SDS011;24535;45.508;12.252;2023-03-31T05:05:38;33.20;;;23.15;;
38785;SDS011;24535;45.508;12.252;2023-03-31T05:08:03;33.00;;;24.83;;
38785;SDS011;24535;45.508;12.252;2023-03-31T05:10:29;38.10;;;24.48;;
38785;SDS011;24535;45.508;12.252;2023-03-31T05:12:55;30.27;;;20.23;;
38785;SDS011;24535;45.508;12.252;2023-03-31T05:15:21;26.92;;;18.25;;
38785;SDS011;24535;45.508;12.252;2023-03-31T05:17:48;25.70;;;19.80;;
38785;SDS011;24535;45.508;12.252;2023-03-31T05:20:15;27.88;;;22.85;;
38785;SDS011;24535;45.508;12.252;2023-03-31T05:22:40;34.50;;;22.42;;
38785;SDS011;24535;45.508;12.252;2023-03-31T05:25:07;33.38;;;24.40;;
38785;SDS011;24535;45.508;12.252;2023-03-31T05:27:34;27.63;;;21.88;;
38785;SDS011;24535;45.508;12.252;2023-03-31T05:30:00;26.95;;;21.48;;
38785;SDS011;24535;45.508;12.252;2023-03-31T05:32:26;33.67;;;24.65;;
38785;SDS011;24535;45.508;12.252;2023-03-31T05:34:55;32.15;;;23.05;;
38785;SDS011;24535;45.508;12.252;2023-03-31T05:37:24;27.92;;;19.92;;
38785;SDS011;24535;45.508;12.252;2023-03-31T05:39:50;37.42;;;23.48;;
38785;SDS011;24535;45.508;12.252;2023-03-31T05:42:16;32.60;;;24.67;;
38785;SDS011;24535;45.508;12.252;2023-03-31T05:44:41;29.33;;;21.67;;
38785;SDS011;24535;45.508;12.252;2023-03-31T05:47:07;27.27;;;19.17;;
38785;SDS011;24535;45.508;12.252;2023-03-31T05:49:33;31.63;;;22.95;;
38785;SDS011;24535;45.508;12.252;2023-03-31T05:51:58;32.08;;;24.35;;
38785;SDS011;24535;45.508;12.252;2023-03-31T05:54:24;26.73;;;20.88;;
38785;SDS011;24535;45.508;12.252;2023-03-31T05:56:49;27.00;;;21.13;;
38785;SDS011;24535;45.508;12.252;2023-03-31T05:59:15;31.45;;;23.33;;
38785;SDS011;24535;45.508;12.252;2023-03-31T06:01:40;40.22;;;24.23;;
38785;SDS011;24535;45.508;12.252;2023-03-31T06:04:06;36.70;;;22.90;;
38785;SDS011;24535;45.508;12.252;2023-03-31T06:06:31;33.58;;;22.33;;
38785;SDS011;24535;45.508;12.252;2023-03-31T06:08:59;30.90;;;21.10;;
38785;SDS011;24535;45.508;12.252;2023-03-31T06:11:24;30.17;;;21.38;;
38785;SDS011;24535;45.508;12.252;2023-03-31T06:13:50;30.70;;;21.92;;
38785;SDS011;24535;45.508;12.252;2023-03-31T06:16:16;28.30;;;21.77;;
38785;SDS011;24535;45.508;12.252;2023-03-31T06:18:42;27.75;;;20.15;;
38785;SDS011;24535;45.508;12.252;2023-03-31T06:21:14;32.10;;;21.15;;
38785;SDS011;24535;45.508;12.252;2023-03-31T06:23:41;29.67;;;21.05;;
38785;SDS011;24535;45.508;12.252;2023-03-31T06:26:11;25.75;;;20.13;;
38785;SDS011;24535;45.508;12.252;2023-03-31T06:28:38;24.23;;;19.67;;
38785;SDS011;24535;45.508;12.252;2023-03-31T06:31:08;26.92;;;20.00;;
38785;SDS011;24535;45.508;12.252;2023-03-31T06:33:37;23.33;;;17.65;;
38785;SDS011;24535;45.508;12.252;2023-03-31T06:36:03;17.88;;;15.73;;
38785;SDS011;24535;45.508;12.252;2023-03-31T06:38:30;19.40;;;14.65;;
38785;SDS011;24535;45.508;12.252;2023-03-31T06:40:57;31.27;;;17.73;;
38785;SDS011;24535;45.508;12.252;2023-03-31T06:43:25;20.17;;;15.53;;
38785;SDS011;24535;45.508;12.252;2023-03-31T07:14:54;27.23;;;19.45;;
38785;SDS011;24535;45.508;12.252;2023-03-31T07:17:19;28.20;;;20.15;;
38785;SDS011;24535;45.508;12.252;2023-03-31T07:19:45;28.45;;;22.48;;
38785;SDS011;24535;45.508;12.252;2023-03-31T07:22:12;23.60;;;18.77;;
38785;SDS011;24535;45.508;12.252;2023-03-31T07:24:41;30.25;;;21.65;;
38785;SDS011;24535;45.508;12.252;2023-03-31T07:27:06;25.75;;;21.20;;
38785;SDS011;24535;45.508;12.252;2023-03-31T07:34:42;31.50;;;24.02;;
38785;SDS011;24535;45.508;12.252;2023-03-31T07:37:07;33.72;;;21.38;;
38785;SDS011;24535;45.508;12.252;2023-03-31T07:45:24;36.20;;;23.25;;
38785;SDS011;24535;45.508;12.252;2023-03-31T07:47:51;27.15;;;19.58;;
38785;SDS011;24535;45.508;12.252;2023-03-31T07:50:16;31.88;;;20.45;;
38785;SDS011;24535;45.508;12.252;2023-03-31T07:52:45;30.53;;;22.60;;
38785;SDS011;24535;45.508;12.252;2023-03-31T07:55:11;35.13;;;21.63;;
38785;SDS011;24535;45.508;12.252;2023-03-31T07:57:37;33.65;;;22.52;;
38785;SDS011;24535;45.508;12.252;2023-03-31T08:00:04;41.47;;;22.88;;
38785;SDS011;24535;45.508;12.252;2023-03-31T08:02:32;37.23;;;21.57;;
38785;SDS011;24535;45.508;12.252;2023-03-31T08:04:58;35.92;;;21.50;;
38785;SDS011;24535;45.508;12.252;2023-03-31T08:07:23;27.67;;;20.30;;
38785;SDS011;24535;45.508;12.252;2023-03-31T08:09:50;34.05;;;22.50;;
38785;SDS011;24535;45.508;12.252;2023-03-31T08:12:16;37.50;;;26.63;;
38785;SDS011;24535;45.508;12.252;2023-03-31T08:14:41;37.17;;;24.70;;
38785;SDS011;24535;45.508;12.252;2023-03-31T08:17:07;38.58;;;26.08;;
38785;SDS011;24535;45.508;12.252;2023-03-31T08:19:34;31.33;;;24.38;;
38785;SDS011;24535;45.508;12.252;2023-03-31T08:22:00;29.95;;;23.50;;
38785;SDS011;24535;45.508;12.252;2023-03-31T08:24:25;32.40;;;23.08;;
38785;SDS011;24535;45.508;12.252;2023-03-31T08:26:50;32.05;;;22.17;;
38785;SDS011;24535;45.508;12.252;2023-03-31T08:29:16;30.73;;;22.38;;
38785;SDS011;24535;45.508;12.252;2023-03-31T08:31:41;32.10;;;23.63;;
38785;SDS011;24535;45.508;12.252;2023-03-31T08:34:06;35.90;;;24.58;;
38785;SDS011;24535;45.508;12.252;2023-03-31T08:36:32;32.17;;;24.27;;
38785;SDS011;24535;45.508;12.252;2023-03-31T08:38:57;38.72;;;25.77;;
38785;SDS011;24535;45.508;12.252;2023-03-31T08:44:12;28.27;;;19.80;;
38785;SDS011;24535;45.508;12.252;2023-03-31T08:46:44;27.58;;;20.65;;
38785;SDS011;24535;45.508;12.252;2023-03-31T08:49:15;25.35;;;18.15;;
38785;SDS011;24535;45.508;12.252;2023-03-31T08:51:47;23.70;;;16.88;;
38785;SDS011;24535;45.508;12.252;2023-03-31T08:54:33;26.40;;;18.13;;
38785;SDS011;24535;45.508;12.252;2023-03-31T08:57:14;23.92;;;18.10;;
38785;SDS011;24535;45.508;12.252;2023-03-31T08:59:44;22.35;;;15.90;;
38785;SDS011;24535;45.508;12.252;2023-03-31T09:05:27;36.40;;;25.10;;
38785;SDS011;24535;45.508;12.252;2023-03-31T09:11:00;31.20;;;22.58;;
38785;SDS011;24535;45.508;12.252;2023-03-31T09:13:43;33.30;;;25.67;;
38785;SDS011;24535;45.508;12.252;2023-03-31T09:16:18;27.63;;;16.23;;
38785;SDS011;24535;45.508;12.252;2023-03-31T09:18:45;33.92;;;22.35;;
38785;SDS011;24535;45.508;12.252;2023-03-31T09:21:13;32.70;;;24.48;;
38785;SDS011;24535;45.508;12.252;2023-03-31T09:23:52;36.97;;;26.02;;
38785;SDS011;24535;45.508;12.252;2023-03-31T09:29:56;41.03;;;28.48;;
38785;SDS011;24535;45.508;12.252;2023-03-31T09:32:25;39.65;;;26.85;;
38785;SDS011;24535;45.508;12.252;2023-03-31T09:34:55;35.88;;;25.38;;
38785;SDS011;24535;45.508;12.252;2023-03-31T09:37:26;36.55;;;23.55;;
38785;SDS011;24535;45.508;12.252;2023-03-31T09:42:32;23.70;;;16.73;;
38785;SDS011;24535;45.508;12.252;2023-03-31T09:44:58;19.05;;;15.40;;
38785;SDS011;24535;45.508;12.252;2023-03-31T09:47:28;31.52;;;21.27;;
38785;SDS011;24535;45.508;12.252;2023-03-31T09:49:57;33.42;;;24.67;;
38785;SDS011;24535;45.508;12.252;2023-03-31T09:52:28;26.58;;;18.52;;
38785;SDS011;24535;45.508;12.252;2023-03-31T09:54:57;35.35;;;25.80;;
38785;SDS011;24535;45.508;12.252;2023-03-31T09:57:26;35.08;;;23.88;;
38785;SDS011;24535;45.508;12.252;2023-03-31T10:00:00;36.42;;;23.95;;
38785;SDS011;24535;45.508;12.252;2023-03-31T10:02:38;47.33;;;27.17;;
38785;SDS011;24535;45.508;12.252;2023-03-31T10:05:31;35.65;;;22.50;;
38785;SDS011;24535;45.508;12.252;2023-03-31T10:08:42;36.40;;;27.92;;
38785;SDS011;24535;45.508;12.252;2023-03-31T10:10:48;22.92;;;18.23;;
38785;SDS011;24535;45.508;12.252;2023-03-31T10:13:21;33.72;;;24.30;;
38785;SDS011;24535;45.508;12.252;2023-03-31T10:15:54;43.95;;;29.70;;
38785;SDS011;24535;45.508;12.252;2023-03-31T10:18:35;39.25;;;28.35;;
38785;SDS011;24535;45.508;12.252;2023-03-31T10:21:04;34.75;;;26.50;;
38785;SDS011;24535;45.508;12.252;2023-03-31T10:23:51;53.92;;;32.65;;
38785;SDS011;24535;45.508;12.252;2023-03-31T10:26:19;49.13;;;27.55;;
38785;SDS011;24535;45.508;12.252;2023-03-31T10:28:47;36.88;;;25.25;;
38785;SDS011;24535;45.508;12.252;2023-03-31T10:31:16;41.55;;;24.50;;
38785;SDS011;24535;45.508;12.252;2023-03-31T10:33:45;50.78;;;33.42;;
38785;SDS011;24535;45.508;12.252;2023-03-31T10:38:48;51.80;;;37.13;;
38785;SDS011;24535;45.508;12.252;2023-03-31T10:41:19;50.45;;;35.15;;
38785;SDS011;24535;45.508;12.252;2023-03-31T10:43:51;50.15;;;31.35;;
38785;SDS011;24535;45.508;12.252;2023-03-31T10:46:38;47.38;;;33.20;;
38785;SDS011;24535;45.508;12.252;2023-03-31T10:51:51;44.72;;;34.00;;
38785;SDS011;24535;45.508;12.252;2023-03-31T10:54:17;49.13;;;31.10;;
38785;SDS011;24535;45.508;12.252;2023-03-31T10:56:44;39.55;;;29.10;;
38785;SDS011;24535;45.508;12.252;2023-03-31T11:04:49;44.58;;;29.50;;
38785;SDS011;24535;45.508;12.252;2023-03-31T11:13:22;37.92;;;25.90;;
38785;SDS011;24535;45.508;12.252;2023-03-31T11:23:53;37.75;;;25.65;;
38785;SDS011;24535;45.508;12.252;2023-03-31T11:34:36;33.67;;;19.88;;
38785;SDS011;24535;45.508;12.252;2023-03-31T11:42:22;34.55;;;24.80;;
38785;SDS011;24535;45.508;12.252;2023-03-31T11:45:20;29.55;;;19.75;;
38785;SDS011;24535;45.508;12.252;2023-03-31T11:47:53;37.90;;;27.70;;
38785;SDS011;24535;45.508;12.252;2023-03-31T11:50:26;31.23;;;21.75;;
38785;SDS011;24535;45.508;12.252;2023-03-31T11:52:57;25.55;;;18.42;;
38785;SDS011;24535;45.508;12.252;2023-03-31T11:55:24;28.17;;;18.95;;
38785;SDS011;24535;45.508;12.252;2023-03-31T12:00:21;22.80;;;17.60;;
38785;SDS011;24535;45.508;12.252;2023-03-31T12:05:20;29.63;;;22.60;;
38785;SDS011;24535;45.508;12.252;2023-03-31T12:08:01;26.73;;;19.92;;
38785;SDS011;24535;45.508;12.252;2023-03-31T12:13:15;25.70;;;16.58;;
38785;SDS011;24535;45.508;12.252;2023-03-31T12:18:31;40.45;;;25.45;;
38785;SDS011;24535;45.508;12.252;2023-03-31T12:21:10;42.08;;;28.02;;
38785;SDS011;24535;45.508;12.252;2023-03-31T12:23:41;37.08;;;23.67;;
38785;SDS011;24535;45.508;12.252;2023-03-31T12:28:40;40.65;;;27.88;;
38785;SDS011;24535;45.508;12.252;2023-03-31T12:31:10;28.27;;;20.95;;
38785;SDS011;24535;45.508;12.252;2023-03-31T12:33:53;32.30;;;21.08;;
38785;SDS011;24535;45.508;12.252;2023-03-31T12:39:26;27.00;;;18.40;;
38785;SDS011;24535;45.508;12.252;2023-03-31T12:56:25;36.67;;;24.95;;
38785;SDS011;24535;45.508;12.252;2023-03-31T12:58:51;39.83;;;27.92;;
38785;SDS011;24535;45.508;12.252;2023-03-31T13:01:22;37.58;;;26.60;;
38785;SDS011;24535;45.508;12.252;2023-03-31T13:09:00;37.83;;;25.45;;
38785;SDS011;24535;45.508;12.252;2023-03-31T13:16:42;36.55;;;26.02;;
38785;SDS011;24535;45.508;12.252;2023-03-31T13:19:09;31.48;;;21.77;;
38785;SDS011;24535;45.508;12.252;2023-03-31T13:21:53;25.00;;;19.38;;
38785;SDS011;24535;45.508;12.252;2023-03-31T13:24:21;37.85;;;24.73;;
38785;SDS011;24535;45.508;12.252;2023-03-31T13:26:48;29.15;;;21.13;;
38785;SDS011;24535;45.508;12.252;2023-03-31T13:34:25;31.00;;;22.65;;
38785;SDS011;24535;45.508;12.252;2023-03-31T13:37:09;31.92;;;20.00;;
38785;SDS011;24535;45.508;12.252;2023-03-31T13:59:54;23.65;;;15.63;;
38785;SDS011;24535;45.508;12.252;2023-03-31T14:03:12;19.10;;;14.07;;
38785;SDS011;24535;45.508;12.252;2023-03-31T14:09:01;20.83;;;12.05;;
38785;SDS011;24535;45.508;12.252;2023-03-31T14:11:31;21.05;;;12.20;;
38785;SDS011;24535;45.508;12.252;2023-03-31T14:16:47;18.65;;;11.32;;
38785;SDS011;24535;45.508;12.252;2023-03-31T14:25:00;17.38;;;9.57;;
38785;SDS011;24535;45.508;12.252;2023-03-31T14:28:03;15.02;;;8.98;;
38785;SDS011;24535;45.508;12.252;2023-03-31T14:33:36;11.05;;;4.80;;
38785;SDS011;24535;45.508;12.252;2023-03-31T14:38:52;14.25;;;5.40;;
38785;SDS011;24535;45.508;12.252;2023-03-31T14:41:25;9.88;;;4.32;;
38785;SDS011;24535;45.508;12.252;2023-03-31T14:43:54;9.45;;;3.92;;
38785;SDS011;24535;45.508;12.252;2023-03-31T14:46:22;8.90;;;3.25;;
38785;SDS011;24535;45.508;12.252;2023-03-31T14:48:48;10.25;;;3.08;;
38785;SDS011;24535;45.508;12.252;2023-03-31T14:57:23;11.40;;;4.53;;
38785;SDS011;24535;45.508;12.252;2023-03-31T14:59:54;10.20;;;3.28;;
38785;SDS011;24535;45.508;12.252;2023-03-31T15:02:33;6.32;;;3.22;;
38785;SDS011;24535;45.508;12.252;2023-03-31T15:05:04;11.35;;;3.90;;
38785;SDS011;24535;45.508;12.252;2023-03-31T15:07:33;11.20;;;3.78;;
38785;SDS011;24535;45.508;12.252;2023-03-31T15:10:00;6.30;;;2.83;;
38785;SDS011;24535;45.508;12.252;2023-03-31T15:12:27;14.15;;;3.42;;
38785;SDS011;24535;45.508;12.252;2023-03-31T15:14:54;7.65;;;3.25;;
38785;SDS011;24535;45.508;12.252;2023-03-31T15:17:26;10.88;;;3.55;;
38785;SDS011;24535;45.508;12.252;2023-03-31T15:19:57;15.40;;;3.78;;
38785;SDS011;24535;45.508;12.252;2023-03-31T15:22:25;9.13;;;3.67;;
38785;SDS011;24535;45.508;12.252;2023-03-31T15:24:53;17.53;;;3.40;;
38785;SDS011;24535;45.508;12.252;2023-03-31T15:29:54;10.35;;;4.18;;
38785;SDS011;24535;45.508;12.252;2023-03-31T15:32:25;13.40;;;5.70;;
38785;SDS011;24535;45.508;12.252;2023-03-31T15:34:53;19.38;;;8.90;;
38785;SDS011;24535;45.508;12.252;2023-03-31T15:37:21;9.63;;;4.70;;
38785;SDS011;24535;45.508;12.252;2023-03-31T15:40:24;10.07;;;4.80;;
38785;SDS011;24535;45.508;12.252;2023-03-31T15:50:42;9.55;;;4.28;;
38785;SDS011;24535;45.508;12.252;2023-03-31T15:53:20;6.63;;;3.63;;
38785;SDS011;24535;45.508;12.252;2023-03-31T15:55:52;7.32;;;3.75;;
38785;SDS011;24535;45.508;12.252;2023-03-31T15:58:19;12.45;;;4.03;;
38785;SDS011;24535;45.508;12.252;2023-03-31T16:00:51;11.10;;;4.90;;
38785;SDS011;24535;45.508;12.252;2023-03-31T16:03:28;18.10;;;6.50;;
38785;SDS011;24535;45.508;12.252;2023-03-31T16:06:38;18.02;;;7.60;;
38785;SDS011;24535;45.508;12.252;2023-03-31T16:11:52;21.63;;;6.50;;
38785;SDS011;24535;45.508;12.252;2023-03-31T16:14:22;11.65;;;7.25;;
38785;SDS011;24535;45.508;12.252;2023-03-31T16:17:07;16.85;;;6.85;;
38785;SDS011;24535;45.508;12.252;2023-03-31T16:19:47;10.40;;;5.85;;
38785;SDS011;24535;45.508;12.252;2023-03-31T16:22:20;7.55;;;5.18;;
38785;SDS011;24535;45.508;12.252;2023-03-31T16:24:50;10.95;;;5.10;;
38785;SDS011;24535;45.508;12.252;2023-03-31T16:27:16;10.75;;;5.45;;
38785;SDS011;24535;45.508;12.252;2023-03-31T16:29:42;12.15;;;5.50;;
38785;SDS011;24535;45.508;12.252;2023-03-31T16:37:25;13.55;;;6.03;;
38785;SDS011;24535;45.508;12.252;2023-03-31T16:39:52;16.98;;;6.70;;
38785;SDS011;24535;45.508;12.252;2023-03-31T16:42:18;13.43;;;7.38;;
38785;SDS011;24535;45.508;12.252;2023-03-31T16:44:43;15.25;;;7.43;;
38785;SDS011;24535;45.508;12.252;2023-03-31T16:47:10;14.55;;;7.30;;
38785;SDS011;24535;45.508;12.252;2023-03-31T16:49:36;15.18;;;7.28;;
38785;SDS011;24535;45.508;12.252;2023-03-31T16:52:02;14.25;;;6.90;;
38785;SDS011;24535;45.508;12.252;2023-03-31T16:54:29;19.13;;;8.23;;
38785;SDS011;24535;45.508;12.252;2023-03-31T16:56:55;15.48;;;8.40;;
38785;SDS011;24535;45.508;12.252;2023-03-31T16:59:21;24.77;;;10.65;;
38785;SDS011;24535;45.508;12.252;2023-03-31T17:01:47;16.52;;;8.45;;
38785;SDS011;24535;45.508;12.252;2023-03-31T17:04:13;15.18;;;9.02;;
38785;SDS011;24535;45.508;12.252;2023-03-31T17:06:38;12.27;;;6.68;;
38785;SDS011;24535;45.508;12.252;2023-03-31T17:09:04;14.07;;;7.63;;
38785;SDS011;24535;45.508;12.252;2023-03-31T17:11:29;17.90;;;6.68;;
38785;SDS011;24535;45.508;12.252;2023-03-31T17:13:55;15.38;;;6.70;;
38785;SDS011;24535;45.508;12.252;2023-03-31T17:16:21;20.80;;;7.05;;
38785;SDS011;24535;45.508;12.252;2023-03-31T17:18:46;15.50;;;7.85;;
38785;SDS011;24535;45.508;12.252;2023-03-31T17:21:13;15.65;;;7.90;;
38785;SDS011;24535;45.508;12.252;2023-03-31T17:23:42;13.25;;;7.30;;
38785;SDS011;24535;45.508;12.252;2023-03-31T17:26:08;14.55;;;8.25;;
38785;SDS011;24535;45.508;12.252;2023-03-31T17:28:36;11.15;;;5.93;;
38785;SDS011;24535;45.508;12.252;2023-03-31T17:31:09;13.93;;;7.32;;
38785;SDS011;24535;45.508;12.252;2023-03-31T17:33:38;11.70;;;7.90;;
38785;SDS011;24535;45.508;12.252;2023-03-31T17:36:05;21.23;;;8.98;;
38785;SDS011;24535;45.508;12.252;2023-03-31T17:38:31;16.83;;;8.48;;
38785;SDS011;24535;45.508;12.252;2023-03-31T17:41:03;14.30;;;7.68;;
38785;SDS011;24535;45.508;12.252;2023-03-31T17:43:34;15.20;;;7.95;;
38785;SDS011;24535;45.508;12.252;2023-03-31T17:46:00;15.73;;;8.07;;
38785;SDS011;24535;45.508;12.252;2023-03-31T17:48:28;16.02;;;8.93;;
38785;SDS011;24535;45.508;12.252;2023-03-31T17:50:53;18.90;;;9.25;;
38785;SDS011;24535;45.508;12.252;2023-03-31T17:53:19;22.38;;;9.25;;
38785;SDS011;24535;45.508;12.252;2023-03-31T17:55:44;16.92;;;8.85;;
38785;SDS011;24535;45.508;12.252;2023-03-31T17:58:10;21.85;;;11.35;;
38785;SDS011;24535;45.508;12.252;2023-03-31T18:00:38;24.52;;;11.40;;
38785;SDS011;24535;45.508;12.252;2023-03-31T18:03:04;22.98;;;10.50;;
38785;SDS011;24535;45.508;12.252;2023-03-31T18:05:29;20.65;;;9.85;;
38785;SDS011;24535;45.508;12.252;2023-03-31T18:07:57;14.05;;;8.40;;
38785;SDS011;24535;45.508;12.252;2023-03-31T18:10:23;18.95;;;9.77;;
38785;SDS011;24535;45.508;12.252;2023-03-31T18:12:48;23.70;;;8.20;;
38785;SDS011;24535;45.508;12.252;2023-03-31T18:15:14;13.35;;;7.40;;
38785;SDS011;24535;45.508;12.252;2023-03-31T18:18:24;23.55;;;8.35;;
38785;SDS011;24535;45.508;12.252;2023-03-31T18:20:52;17.13;;;9.38;;
38785;SDS011;24535;45.508;12.252;2023-03-31T18:23:36;28.13;;;15.60;;
38785;SDS011;24535;45.508;12.252;2023-03-31T18:31:55;13.65;;;9.30;;
38785;SDS011;24535;45.508;12.252;2023-03-31T18:37:07;19.80;;;11.18;;
38785;SDS011;24535;45.508;12.252;2023-03-31T18:39:36;13.82;;;9.30;;
38785;SDS011;24535;45.508;12.252;2023-03-31T18:42:11;25.70;;;12.17;;
38785;SDS011;24535;45.508;12.252;2023-03-31T18:47:33;18.10;;;9.80;;